sensor_id;sensor_type;location;lat;lon;timestamp;P1;durP1;ratioP1;P2;durP2;ratioP2
9142;SDS011;54072;47.410;8.446;2023-04-03T00:02:18;5.90;;;4.57;;
9142;SDS011;54072;47.410;8.446;2023-04-03T00:04:46;6.10;;;5.50;;
9142;SDS011;54072;47.410;8.446;2023-04-03T00:07:13;6.53;;;5.10;;
9142;SDS011;54072;47.410;8.446;2023-04-03T00:09:42;6.63;;;5.20;;
9142;SDS011;54072;47.410;8.446;2023-04-03T00:12:09;5.83;;;5.20;;
9142;SDS011;54072;47.410;8.446;2023-04-03T00:14:37;5.87;;;5.00;;
9142;SDS011;54072;47.410;8.446;2023-04-03T00:17:05;6.27;;;5.33;;
9142;SDS011;54072;47.410;8.446;2023-04-03T00:19:34;5.53;;;4.97;;
9142;SDS011;54072;47.410;8.446;2023-04-03T00:22:02;6.47;;;5.43;;
9142;SDS011;54072;47.410;8.446;2023-04-03T00:24:30;5.93;;;5.33;;
9142;SDS011;54072;47.410;8.446;2023-04-03T00:26:58;5.13;;;4.63;;
9142;SDS011;54072;47.410;8.446;2023-04-03T00:29:25;5.80;;;4.83;;
9142;SDS011;54072;47.410;8.446;2023-04-03T00:31:53;5.93;;;4.67;;
9142;SDS011;54072;47.410;8.446;2023-04-03T00:34:21;5.57;;;4.83;;
9142;SDS011;54072;47.410;8.446;2023-04-03T00:36:50;5.63;;;4.83;;
9142;SDS011;54072;47.410;8.446;2023-04-03T00:39:18;5.20;;;4.50;;
9142;SDS011;54072;47.410;8.446;2023-04-03T00:41:46;5.40;;;4.40;;
9142;SDS011;54072;47.410;8.446;2023-04-03T00:44:21;6.53;;;5.20;;
9142;SDS011;54072;47.410;8.446;2023-04-03T00:46:49;6.00;;;4.70;;
9142;SDS011;54072;47.410;8.446;2023-04-03T00:49:17;4.73;;;4.33;;
9142;SDS011;54072;47.410;8.446;2023-04-03T00:51:45;5.23;;;4.20;;
9142;SDS011;54072;47.410;8.446;2023-04-03T00:54:14;5.00;;;4.13;;
9142;SDS011;54072;47.410;8.446;2023-04-03T00:56:42;4.37;;;3.97;;
9142;SDS011;54072;47.410;8.446;2023-04-03T00:59:11;4.53;;;4.07;;
9142;SDS011;54072;47.410;8.446;2023-04-03T01:01:40;4.90;;;4.00;;
9142;SDS011;54072;47.410;8.446;2023-04-03T01:04:24;4.70;;;3.90;;
9142;SDS011;54072;47.410;8.446;2023-04-03T01:06:54;4.23;;;3.83;;
9142;SDS011;54072;47.410;8.446;2023-04-03T01:09:24;4.30;;;3.90;;
9142;SDS011;54072;47.410;8.446;2023-04-03T01:11:52;4.00;;;3.60;;
9142;SDS011;54072;47.410;8.446;2023-04-03T01:14:20;4.17;;;3.77;;
9142;SDS011;54072;47.410;8.446;2023-04-03T01:16:51;4.63;;;3.87;;
9142;SDS011;54072;47.410;8.446;2023-04-03T01:19:20;4.00;;;3.60;;
9142;SDS011;54072;47.410;8.446;2023-04-03T01:22:02;4.00;;;3.60;;
9142;SDS011;54072;47.410;8.446;2023-04-03T01:24:38;5.07;;;4.40;;
9142;SDS011;54072;47.410;8.446;2023-04-03T01:27:09;4.87;;;4.37;;
9142;SDS011;54072;47.410;8.446;2023-04-03T01:29:38;6.93;;;4.53;;
9142;SDS011;54072;47.410;8.446;2023-04-03T01:32:08;5.40;;;4.53;;
9142;SDS011;54072;47.410;8.446;2023-04-03T01:34:36;5.00;;;4.50;;
9142;SDS011;54072;47.410;8.446;2023-04-03T01:37:03;5.23;;;4.63;;
9142;SDS011;54072;47.410;8.446;2023-04-03T01:39:31;5.07;;;4.50;;
9142;SDS011;54072;47.410;8.446;2023-04-03T01:41:59;5.43;;;4.73;;
9142;SDS011;54072;47.410;8.446;2023-04-03T01:44:27;5.47;;;4.80;;
9142;SDS011;54072;47.410;8.446;2023-04-03T01:46:55;6.03;;;5.37;;
9142;SDS011;54072;47.410;8.446;2023-04-03T01:49:24;5.70;;;5.20;;
9142;SDS011;54072;47.410;8.446;2023-04-03T01:51:52;5.90;;;4.97;;
9142;SDS011;54072;47.410;8.446;2023-04-03T01:54:19;6.87;;;5.53;;
9142;SDS011;54072;47.410;8.446;2023-04-03T01:56:47;6.97;;;5.50;;
9142;SDS011;54072;47.410;8.446;2023-04-03T01:59:15;6.23;;;5.47;;
9142;SDS011;54072;47.410;8.446;2023-04-03T02:01:44;7.73;;;5.33;;
9142;SDS011;54072;47.410;8.446;2023-04-03T02:04:12;6.97;;;5.43;;
9142;SDS011;54072;47.410;8.446;2023-04-03T02:06:41;7.23;;;5.90;;
9142;SDS011;54072;47.410;8.446;2023-04-03T02:09:09;5.80;;;5.20;;
9142;SDS011;54072;47.410;8.446;2023-04-03T02:11:37;5.93;;;4.97;;
9142;SDS011;54072;47.410;8.446;2023-04-03T02:14:04;5.83;;;4.67;;
9142;SDS011;54072;47.410;8.446;2023-04-03T02:16:32;5.90;;;5.30;;
9142;SDS011;54072;47.410;8.446;2023-04-03T02:19:00;5.17;;;4.67;;
9142;SDS011;54072;47.410;8.446;2023-04-03T02:21:28;6.63;;;5.17;;
9142;SDS011;54072;47.410;8.446;2023-04-03T02:23:57;6.13;;;5.10;;
9142;SDS011;54072;47.410;8.446;2023-04-03T02:26:25;8.00;;;5.60;;
9142;SDS011;54072;47.410;8.446;2023-04-03T02:28:53;8.63;;;5.40;;
9142;SDS011;54072;47.410;8.446;2023-04-03T02:31:21;5.97;;;5.33;;
9142;SDS011;54072;47.410;8.446;2023-04-03T02:33:50;6.23;;;5.37;;
9142;SDS011;54072;47.410;8.446;2023-04-03T02:36:18;5.73;;;5.23;;
9142;SDS011;54072;47.410;8.446;2023-04-03T02:38:45;6.90;;;5.90;;
9142;SDS011;54072;47.410;8.446;2023-04-03T02:41:15;6.13;;;5.33;;
9142;SDS011;54072;47.410;8.446;2023-04-03T02:43:43;6.00;;;5.40;;
9142;SDS011;54072;47.410;8.446;2023-04-03T02:46:11;6.47;;;5.53;;
9142;SDS011;54072;47.410;8.446;2023-04-03T02:48:41;8.43;;;5.37;;
9142;SDS011;54072;47.410;8.446;2023-04-03T02:51:08;6.70;;;5.13;;
9142;SDS011;54072;47.410;8.446;2023-04-03T02:53:36;4.90;;;4.50;;
9142;SDS011;54072;47.410;8.446;2023-04-03T02:56:04;5.50;;;4.93;;
9142;SDS011;54072;47.410;8.446;2023-04-03T02:58:33;5.60;;;5.00;;
9142;SDS011;54072;47.410;8.446;2023-04-03T03:01:01;4.90;;;4.40;;
9142;SDS011;54072;47.410;8.446;2023-04-03T03:03:29;4.70;;;4.23;;
9142;SDS011;54072;47.410;8.446;2023-04-03T03:06:01;4.70;;;4.00;;
9142;SDS011;54072;47.410;8.446;2023-04-03T03:08:29;5.10;;;4.60;;
9142;SDS011;54072;47.410;8.446;2023-04-03T03:10:57;5.47;;;4.87;;
9142;SDS011;54072;47.410;8.446;2023-04-03T03:13:25;4.20;;;3.80;;
9142;SDS011;54072;47.410;8.446;2023-04-03T03:15:54;4.77;;;4.33;;
9142;SDS011;54072;47.410;8.446;2023-04-03T03:18:22;4.73;;;4.33;;
9142;SDS011;54072;47.410;8.446;2023-04-03T03:20:50;4.50;;;4.10;;
9142;SDS011;54072;47.410;8.446;2023-04-03T03:23:18;4.97;;;4.20;;
9142;SDS011;54072;47.410;8.446;2023-04-03T03:25:46;4.87;;;4.40;;
9142;SDS011;54072;47.410;8.446;2023-04-03T03:28:14;5.70;;;4.07;;
9142;SDS011;54072;47.410;8.446;2023-04-03T03:30:42;4.67;;;4.27;;
9142;SDS011;54072;47.410;8.446;2023-04-03T03:33:11;4.77;;;4.07;;
9142;SDS011;54072;47.410;8.446;2023-04-03T03:35:38;4.67;;;4.27;;
9142;SDS011;54072;47.410;8.446;2023-04-03T03:38:07;4.83;;;4.03;;
9142;SDS011;54072;47.410;8.446;2023-04-03T03:40:34;5.00;;;4.50;;
9142;SDS011;54072;47.410;8.446;2023-04-03T03:43:02;4.97;;;4.50;;
9142;SDS011;54072;47.410;8.446;2023-04-03T03:45:30;5.53;;;4.90;;
9142;SDS011;54072;47.410;8.446;2023-04-03T03:47:58;5.20;;;4.70;;
9142;SDS011;54072;47.410;8.446;2023-04-03T03:50:27;6.60;;;4.60;;
9142;SDS011;54072;47.410;8.446;2023-04-03T03:52:55;6.60;;;4.73;;
9142;SDS011;54072;47.410;8.446;2023-04-03T03:55:23;5.20;;;4.67;;
9142;SDS011;54072;47.410;8.446;2023-04-03T03:57:51;4.77;;;4.37;;
9142;SDS011;54072;47.410;8.446;2023-04-03T04:00:19;5.20;;;4.70;;
9142;SDS011;54072;47.410;8.446;2023-04-03T04:02:47;5.87;;;4.77;;
9142;SDS011;54072;47.410;8.446;2023-04-03T04:05:15;5.10;;;4.60;;
9142;SDS011;54072;47.410;8.446;2023-04-03T04:07:44;5.40;;;4.90;;
9142;SDS011;54072;47.410;8.446;2023-04-03T04:10:11;5.17;;;4.67;;
9142;SDS011;54072;47.410;8.446;2023-04-03T04:12:40;5.77;;;5.17;;
9142;SDS011;54072;47.410;8.446;2023-04-03T04:15:08;6.43;;;5.13;;
9142;SDS011;54072;47.410;8.446;2023-04-03T04:17:37;5.97;;;5.37;;
9142;SDS011;54072;47.410;8.446;2023-04-03T04:20:05;6.00;;;5.37;;
9142;SDS011;54072;47.410;8.446;2023-04-03T04:22:33;6.17;;;5.57;;
9142;SDS011;54072;47.410;8.446;2023-04-03T04:25:02;5.63;;;5.03;;
9142;SDS011;54072;47.410;8.446;2023-04-03T04:27:31;5.63;;;5.07;;
9142;SDS011;54072;47.410;8.446;2023-04-03T04:29:59;5.23;;;4.73;;
9142;SDS011;54072;47.410;8.446;2023-04-03T04:32:27;5.47;;;4.97;;
9142;SDS011;54072;47.410;8.446;2023-04-03T04:34:54;5.00;;;4.60;;
9142;SDS011;54072;47.410;8.446;2023-04-03T04:37:22;5.00;;;4.47;;
9142;SDS011;54072;47.410;8.446;2023-04-03T04:39:50;5.07;;;4.57;;
9142;SDS011;54072;47.410;8.446;2023-04-03T04:42:19;5.33;;;4.43;;
9142;SDS011;54072;47.410;8.446;2023-04-03T04:44:47;5.30;;;4.80;;
9142;SDS011;54072;47.410;8.446;2023-04-03T04:47:16;5.23;;;4.63;;
9142;SDS011;54072;47.410;8.446;2023-04-03T04:49:44;5.07;;;4.30;;
9142;SDS011;54072;47.410;8.446;2023-04-03T04:52:13;6.20;;;4.77;;
9142;SDS011;54072;47.410;8.446;2023-04-03T04:54:41;5.00;;;4.50;;
9142;SDS011;54072;47.410;8.446;2023-04-03T04:57:09;5.27;;;4.57;;
9142;SDS011;54072;47.410;8.446;2023-04-03T04:59:38;5.90;;;4.70;;
9142;SDS011;54072;47.410;8.446;2023-04-03T05:02:06;4.87;;;4.47;;
9142;SDS011;54072;47.410;8.446;2023-04-03T05:04:33;4.40;;;4.00;;
9142;SDS011;54072;47.410;8.446;2023-04-03T05:07:01;5.07;;;4.57;;
9142;SDS011;54072;47.410;8.446;2023-04-03T05:09:29;4.87;;;4.37;;
9142;SDS011;54072;47.410;8.446;2023-04-03T05:11:57;5.33;;;4.50;;
9142;SDS011;54072;47.410;8.446;2023-04-03T05:14:24;5.13;;;3.90;;
9142;SDS011;54072;47.410;8.446;2023-04-03T05:16:53;4.93;;;4.37;;
9142;SDS011;54072;47.410;8.446;2023-04-03T05:19:21;5.20;;;4.70;;
9142;SDS011;54072;47.410;8.446;2023-04-03T05:21:49;7.30;;;4.60;;
9142;SDS011;54072;47.410;8.446;2023-04-03T05:24:17;4.93;;;4.43;;
9142;SDS011;54072;47.410;8.446;2023-04-03T05:26:45;4.87;;;4.03;;
9142;SDS011;54072;47.410;8.446;2023-04-03T05:29:12;5.60;;;4.70;;
9142;SDS011;54072;47.410;8.446;2023-04-03T05:31:40;6.17;;;4.27;;
9142;SDS011;54072;47.410;8.446;2023-04-03T05:34:10;4.70;;;4.07;;
9142;SDS011;54072;47.410;8.446;2023-04-03T05:36:38;4.90;;;4.40;;
9142;SDS011;54072;47.410;8.446;2023-04-03T05:39:06;4.70;;;4.20;;
9142;SDS011;54072;47.410;8.446;2023-04-03T05:41:33;4.73;;;4.23;;
9142;SDS011;54072;47.410;8.446;2023-04-03T05:44:01;4.93;;;4.43;;
9142;SDS011;54072;47.410;8.446;2023-04-03T05:46:29;5.87;;;4.40;;
9142;SDS011;54072;47.410;8.446;2023-04-03T05:48:57;4.97;;;4.17;;
9142;SDS011;54072;47.410;8.446;2023-04-03T05:51:28;4.77;;;4.30;;
9142;SDS011;54072;47.410;8.446;2023-04-03T05:53:59;4.53;;;4.13;;
9142;SDS011;54072;47.410;8.446;2023-04-03T05:56:30;5.10;;;4.60;;
9142;SDS011;54072;47.410;8.446;2023-04-03T05:58:57;4.60;;;4.20;;
9142;SDS011;54072;47.410;8.446;2023-04-03T06:01:25;5.43;;;4.80;;
9142;SDS011;54072;47.410;8.446;2023-04-03T06:03:53;4.70;;;4.30;;
9142;SDS011;54072;47.410;8.446;2023-04-03T06:06:22;4.67;;;4.17;;
9142;SDS011;54072;47.410;8.446;2023-04-03T06:08:51;4.70;;;4.30;;
9142;SDS011;54072;47.410;8.446;2023-04-03T06:11:19;5.27;;;4.60;;
9142;SDS011;54072;47.410;8.446;2023-04-03T06:13:47;5.67;;;4.73;;
9142;SDS011;54072;47.410;8.446;2023-04-03T06:16:15;5.57;;;4.30;;
9142;SDS011;54072;47.410;8.446;2023-04-03T06:18:44;4.70;;;4.30;;
9142;SDS011;54072;47.410;8.446;2023-04-03T06:21:12;4.17;;;3.77;;
9142;SDS011;54072;47.410;8.446;2023-04-03T06:23:40;4.03;;;3.60;;
9142;SDS011;54072;47.410;8.446;2023-04-03T06:26:09;4.33;;;3.93;;
9142;SDS011;54072;47.410;8.446;2023-04-03T06:28:37;4.13;;;3.73;;
9142;SDS011;54072;47.410;8.446;2023-04-03T06:31:05;4.73;;;3.97;;
9142;SDS011;54072;47.410;8.446;2023-04-03T06:33:32;3.63;;;3.33;;
9142;SDS011;54072;47.410;8.446;2023-04-03T06:36:03;3.40;;;3.10;;
9142;SDS011;54072;47.410;8.446;2023-04-03T06:38:32;3.20;;;3.00;;
9142;SDS011;54072;47.410;8.446;2023-04-03T06:40:59;3.87;;;3.30;;
9142;SDS011;54072;47.410;8.446;2023-04-03T06:45:59;4.17;;;3.50;;
9142;SDS011;54072;47.410;8.446;2023-04-03T06:48:27;3.53;;;3.23;;
9142;SDS011;54072;47.410;8.446;2023-04-03T06:50:55;3.87;;;3.50;;
9142;SDS011;54072;47.410;8.446;2023-04-03T06:53:23;4.00;;;3.60;;
9142;SDS011;54072;47.410;8.446;2023-04-03T06:55:51;3.60;;;3.30;;
9142;SDS011;54072;47.410;8.446;2023-04-03T06:58:19;4.17;;;3.77;;
9142;SDS011;54072;47.410;8.446;2023-04-03T07:00:48;4.00;;;3.63;;
9142;SDS011;54072;47.410;8.446;2023-04-03T07:03:16;4.63;;;3.40;;
9142;SDS011;54072;47.410;8.446;2023-04-03T07:05:44;4.30;;;3.90;;
9142;SDS011;54072;47.410;8.446;2023-04-03T07:08:12;4.07;;;3.43;;
9142;SDS011;54072;47.410;8.446;2023-04-03T07:10:39;3.80;;;3.37;;
9142;SDS011;54072;47.410;8.446;2023-04-03T07:13:07;3.57;;;3.27;;
9142;SDS011;54072;47.410;8.446;2023-04-03T07:15:35;3.57;;;3.20;;
9142;SDS011;54072;47.410;8.446;2023-04-03T07:18:04;3.50;;;3.20;;
9142;SDS011;54072;47.410;8.446;2023-04-03T07:20:32;3.67;;;3.30;;
9142;SDS011;54072;47.410;8.446;2023-04-03T07:23:00;4.03;;;3.33;;
9142;SDS011;54072;47.410;8.446;2023-04-03T07:25:29;3.33;;;3.07;;
9142;SDS011;54072;47.410;8.446;2023-04-03T07:27:57;4.07;;;3.17;;
9142;SDS011;54072;47.410;8.446;2023-04-03T07:30:25;3.67;;;3.20;;
9142;SDS011;54072;47.410;8.446;2023-04-03T07:32:53;3.30;;;3.00;;
9142;SDS011;54072;47.410;8.446;2023-04-03T07:35:22;3.83;;;3.13;;
9142;SDS011;54072;47.410;8.446;2023-04-03T07:37:50;4.57;;;3.30;;
9142;SDS011;54072;47.410;8.446;2023-04-03T07:40:18;3.43;;;3.13;;
9142;SDS011;54072;47.410;8.446;2023-04-03T07:42:46;3.30;;;3.00;;
9142;SDS011;54072;47.410;8.446;2023-04-03T07:45:13;3.90;;;3.10;;
9142;SDS011;54072;47.410;8.446;2023-04-03T07:47:41;3.10;;;2.80;;
9142;SDS011;54072;47.410;8.446;2023-04-03T07:50:09;3.30;;;3.00;;
9142;SDS011;54072;47.410;8.446;2023-04-03T07:52:38;6.77;;;4.43;;
9142;SDS011;54072;47.410;8.446;2023-04-03T07:55:06;3.50;;;3.20;;
9142;SDS011;54072;47.410;8.446;2023-04-03T07:57:35;3.20;;;2.90;;
9142;SDS011;54072;47.410;8.446;2023-04-03T08:00:04;3.40;;;3.10;;
9142;SDS011;54072;47.410;8.446;2023-04-03T08:02:32;3.20;;;2.90;;
9142;SDS011;54072;47.410;8.446;2023-04-03T08:05:00;2.93;;;2.67;;
9142;SDS011;54072;47.410;8.446;2023-04-03T08:07:28;3.00;;;2.63;;
9142;SDS011;54072;47.410;8.446;2023-04-03T08:09:57;4.40;;;2.80;;
9142;SDS011;54072;47.410;8.446;2023-04-03T08:12:25;3.03;;;2.73;;
9142;SDS011;54072;47.410;8.446;2023-04-03T08:14:54;2.70;;;2.50;;
9142;SDS011;54072;47.410;8.446;2023-04-03T08:17:22;3.13;;;2.60;;
9142;SDS011;54072;47.410;8.446;2023-04-03T08:19:50;2.50;;;2.30;;
9142;SDS011;54072;47.410;8.446;2023-04-03T08:22:17;2.67;;;2.47;;
9142;SDS011;54072;47.410;8.446;2023-04-03T08:24:45;3.67;;;2.40;;
9142;SDS011;54072;47.410;8.446;2023-04-03T08:27:23;2.70;;;2.50;;
9142;SDS011;54072;47.410;8.446;2023-04-03T08:29:51;2.70;;;2.50;;
9142;SDS011;54072;47.410;8.446;2023-04-03T08:32:18;3.33;;;2.70;;
9142;SDS011;54072;47.410;8.446;2023-04-03T08:34:46;2.60;;;2.37;;
9142;SDS011;54072;47.410;8.446;2023-04-03T08:37:14;2.57;;;2.37;;
9142;SDS011;54072;47.410;8.446;2023-04-03T08:39:42;3.07;;;2.40;;
9142;SDS011;54072;47.410;8.446;2023-04-03T08:42:13;2.53;;;2.33;;
9142;SDS011;54072;47.410;8.446;2023-04-03T08:44:46;2.63;;;2.43;;
9142;SDS011;54072;47.410;8.446;2023-04-03T08:47:18;3.13;;;2.60;;
9142;SDS011;54072;47.410;8.446;2023-04-03T08:49:51;2.43;;;2.23;;
9142;SDS011;54072;47.410;8.446;2023-04-03T08:52:20;2.80;;;2.50;;
9142;SDS011;54072;47.410;8.446;2023-04-03T08:54:51;3.10;;;2.77;;
9142;SDS011;54072;47.410;8.446;2023-04-03T08:57:23;2.73;;;2.53;;
9142;SDS011;54072;47.410;8.446;2023-04-03T08:59:56;2.60;;;2.40;;
9142;SDS011;54072;47.410;8.446;2023-04-03T09:02:25;2.50;;;2.30;;
9142;SDS011;54072;47.410;8.446;2023-04-03T09:04:56;3.10;;;2.57;;
9142;SDS011;54072;47.410;8.446;2023-04-03T09:07:27;2.50;;;2.30;;
9142;SDS011;54072;47.410;8.446;2023-04-03T09:10:00;2.83;;;2.63;;
9142;SDS011;54072;47.410;8.446;2023-04-03T09:12:32;2.83;;;2.60;;
9142;SDS011;54072;47.410;8.446;2023-04-03T09:15:05;2.93;;;2.70;;
9142;SDS011;54072;47.410;8.446;2023-04-03T09:17:40;2.60;;;2.40;;
9142;SDS011;54072;47.410;8.446;2023-04-03T09:20:13;2.60;;;2.40;;
9142;SDS011;54072;47.410;8.446;2023-04-03T09:22:46;5.13;;;2.63;;
9142;SDS011;54072;47.410;8.446;2023-04-03T09:25:18;2.60;;;2.40;;
9142;SDS011;54072;47.410;8.446;2023-04-03T09:27:48;2.83;;;2.30;;
9142;SDS011;54072;47.410;8.446;2023-04-03T09:30:19;2.93;;;2.73;;
9142;SDS011;54072;47.410;8.446;2023-04-03T09:32:48;2.80;;;2.60;;
9142;SDS011;54072;47.410;8.446;2023-04-03T09:35:19;3.20;;;2.47;;
9142;SDS011;54072;47.410;8.446;2023-04-03T09:37:52;5.37;;;3.30;;
9142;SDS011;54072;47.410;8.446;2023-04-03T09:40:30;3.10;;;2.80;;
9142;SDS011;54072;47.410;8.446;2023-04-03T09:43:03;2.77;;;2.50;;
9142;SDS011;54072;47.410;8.446;2023-04-03T09:45:49;2.67;;;2.47;;
9142;SDS011;54072;47.410;8.446;2023-04-03T09:48:18;2.90;;;2.70;;
9142;SDS011;54072;47.410;8.446;2023-04-03T09:50:54;2.83;;;2.63;;
9142;SDS011;54072;47.410;8.446;2023-04-03T09:53:29;2.90;;;2.70;;
9142;SDS011;54072;47.410;8.446;2023-04-03T09:55:59;2.93;;;2.73;;
9142;SDS011;54072;47.410;8.446;2023-04-03T09:58:30;2.83;;;2.50;;
9142;SDS011;54072;47.410;8.446;2023-04-03T10:01:06;3.00;;;2.80;;
9142;SDS011;54072;47.410;8.446;2023-04-03T10:03:36;3.00;;;2.70;;
9142;SDS011;54072;47.410;8.446;2023-04-03T10:06:05;3.47;;;2.67;;
9142;SDS011;54072;47.410;8.446;2023-04-03T10:08:58;3.07;;;2.83;;
9142;SDS011;54072;47.410;8.446;2023-04-03T10:11:27;2.70;;;2.50;;
9142;SDS011;54072;47.410;8.446;2023-04-03T10:13:55;2.70;;;2.50;;
9142;SDS011;54072;47.410;8.446;2023-04-03T10:16:32;3.13;;;2.83;;
9142;SDS011;54072;47.410;8.446;2023-04-03T10:19:12;3.17;;;2.87;;
9142;SDS011;54072;47.410;8.446;2023-04-03T10:21:50;2.77;;;2.57;;
9142;SDS011;54072;47.410;8.446;2023-04-03T10:24:23;2.90;;;2.70;;
9142;SDS011;54072;47.410;8.446;2023-04-03T10:26:56;2.77;;;2.57;;
9142;SDS011;54072;47.410;8.446;2023-04-03T10:29:35;2.97;;;2.67;;
9142;SDS011;54072;47.410;8.446;2023-04-03T10:32:14;3.07;;;2.77;;
9142;SDS011;54072;47.410;8.446;2023-04-03T10:34:49;2.97;;;2.67;;
9142;SDS011;54072;47.410;8.446;2023-04-03T10:37:30;3.30;;;2.80;;
9142;SDS011;54072;47.410;8.446;2023-04-03T10:40:05;2.70;;;2.50;;
9142;SDS011;54072;47.410;8.446;2023-04-03T10:42:41;3.17;;;2.87;;
9142;SDS011;54072;47.410;8.446;2023-04-03T10:45:19;3.93;;;2.77;;
9142;SDS011;54072;47.410;8.446;2023-04-03T10:47:53;2.93;;;2.73;;
9142;SDS011;54072;47.410;8.446;2023-04-03T10:50:30;2.80;;;2.60;;
9142;SDS011;54072;47.410;8.446;2023-04-03T10:53:05;3.13;;;2.70;;
9142;SDS011;54072;47.410;8.446;2023-04-03T10:55:37;2.83;;;2.63;;
9142;SDS011;54072;47.410;8.446;2023-04-03T10:58:09;2.90;;;2.67;;
9142;SDS011;54072;47.410;8.446;2023-04-03T11:00:43;3.00;;;2.80;;
9142;SDS011;54072;47.410;8.446;2023-04-03T11:03:16;5.00;;;3.60;;
9142;SDS011;54072;47.410;8.446;2023-04-03T11:05:49;3.97;;;3.60;;
9142;SDS011;54072;47.410;8.446;2023-04-03T11:08:23;3.70;;;3.30;;
9142;SDS011;54072;47.410;8.446;2023-04-03T11:10:55;3.27;;;2.97;;
9142;SDS011;54072;47.410;8.446;2023-04-03T11:13:27;4.03;;;3.63;;
9142;SDS011;54072;47.410;8.446;2023-04-03T11:15:57;4.10;;;3.70;;
9142;SDS011;54072;47.410;8.446;2023-04-03T11:18:28;4.73;;;3.80;;
9142;SDS011;54072;47.410;8.446;2023-04-03T11:21:01;3.30;;;3.00;;
9142;SDS011;54072;47.410;8.446;2023-04-03T11:23:31;3.27;;;2.97;;
9142;SDS011;54072;47.410;8.446;2023-04-03T11:26:09;3.30;;;2.90;;
9142;SDS011;54072;47.410;8.446;2023-04-03T11:28:38;3.60;;;2.83;;
9142;SDS011;54072;47.410;8.446;2023-04-03T11:31:13;3.57;;;2.63;;
9142;SDS011;54072;47.410;8.446;2023-04-03T11:33:51;3.00;;;2.80;;
9142;SDS011;54072;47.410;8.446;2023-04-03T11:36:23;3.80;;;3.50;;
9142;SDS011;54072;47.410;8.446;2023-04-03T11:38:52;3.33;;;3.07;;
9142;SDS011;54072;47.410;8.446;2023-04-03T11:41:25;3.50;;;3.20;;
9142;SDS011;54072;47.410;8.446;2023-04-03T11:43:55;4.03;;;3.10;;
9142;SDS011;54072;47.410;8.446;2023-04-03T11:58:11;3.20;;;2.90;;
9142;SDS011;54072;47.410;8.446;2023-04-03T12:00:48;3.37;;;2.80;;
9142;SDS011;54072;47.410;8.446;2023-04-03T12:12:31;3.63;;;3.13;;
9142;SDS011;54072;47.410;8.446;2023-04-03T12:15:21;3.13;;;2.83;;
9142;SDS011;54072;47.410;8.446;2023-04-03T12:17:54;3.70;;;2.90;;
9142;SDS011;54072;47.410;8.446;2023-04-03T12:23:23;3.93;;;3.00;;
9142;SDS011;54072;47.410;8.446;2023-04-03T12:26:00;3.20;;;2.90;;
9142;SDS011;54072;47.410;8.446;2023-04-03T12:28:38;3.43;;;3.13;;
9142;SDS011;54072;47.410;8.446;2023-04-03T12:31:08;3.00;;;2.80;;
9142;SDS011;54072;47.410;8.446;2023-04-03T12:33:39;4.87;;;3.90;;
9142;SDS011;54072;47.410;8.446;2023-04-03T12:36:28;5.20;;;3.40;;
9142;SDS011;54072;47.410;8.446;2023-04-03T12:39:11;3.33;;;3.03;;
9142;SDS011;54072;47.410;8.446;2023-04-03T12:41:45;3.63;;;3.10;;
9142;SDS011;54072;47.410;8.446;2023-04-03T12:44:24;3.40;;;3.00;;
9142;SDS011;54072;47.410;8.446;2023-04-03T12:47:08;3.37;;;3.07;;
9142;SDS011;54072;47.410;8.446;2023-04-03T12:49:50;5.63;;;3.07;;
9142;SDS011;54072;47.410;8.446;2023-04-03T12:52:19;3.40;;;3.10;;
9142;SDS011;54072;47.410;8.446;2023-04-03T12:54:49;3.20;;;2.90;;
9142;SDS011;54072;47.410;8.446;2023-04-03T12:57:18;4.23;;;3.00;;
9142;SDS011;54072;47.410;8.446;2023-04-03T12:59:48;3.40;;;3.10;;
9142;SDS011;54072;47.410;8.446;2023-04-03T13:02:19;3.43;;;3.13;;
9142;SDS011;54072;47.410;8.446;2023-04-03T13:04:50;3.33;;;2.93;;
9142;SDS011;54072;47.410;8.446;2023-04-03T13:07:19;3.40;;;3.10;;
9142;SDS011;54072;47.410;8.446;2023-04-03T13:09:55;3.67;;;3.10;;
9142;SDS011;54072;47.410;8.446;2023-04-03T13:12:24;3.20;;;2.90;;
9142;SDS011;54072;47.410;8.446;2023-04-03T13:14:53;2.80;;;2.60;;
9142;SDS011;54072;47.410;8.446;2023-04-03T13:17:24;2.80;;;2.60;;
9142;SDS011;54072;47.410;8.446;2023-04-03T13:19:54;3.20;;;2.90;;
9142;SDS011;54072;47.410;8.446;2023-04-03T13:22:26;3.23;;;2.70;;
9142;SDS011;54072;47.410;8.446;2023-04-03T13:24:56;3.23;;;2.93;;
9142;SDS011;54072;47.410;8.446;2023-04-03T13:27:27;3.57;;;2.87;;
9142;SDS011;54072;47.410;8.446;2023-04-03T13:29:58;2.97;;;2.70;;
9142;SDS011;54072;47.410;8.446;2023-04-03T13:32:28;2.80;;;2.60;;
9142;SDS011;54072;47.410;8.446;2023-04-03T13:34:57;2.80;;;2.60;;
9142;SDS011;54072;47.410;8.446;2023-04-03T13:37:29;2.70;;;2.50;;
9142;SDS011;54072;47.410;8.446;2023-04-03T13:40:00;2.90;;;2.70;;
9142;SDS011;54072;47.410;8.446;2023-04-03T13:42:31;3.13;;;2.90;;
9142;SDS011;54072;47.410;8.446;2023-04-03T13:45:10;3.33;;;3.03;;
9142;SDS011;54072;47.410;8.446;2023-04-03T13:47:47;3.70;;;3.00;;
9142;SDS011;54072;47.410;8.446;2023-04-03T13:50:17;4.00;;;3.03;;
9142;SDS011;54072;47.410;8.446;2023-04-03T13:52:47;3.17;;;2.90;;
9142;SDS011;54072;47.410;8.446;2023-04-03T13:55:18;4.17;;;3.13;;
9142;SDS011;54072;47.410;8.446;2023-04-03T13:57:55;3.80;;;3.07;;
9142;SDS011;54072;47.410;8.446;2023-04-03T14:00:36;2.93;;;2.63;;
9142;SDS011;54072;47.410;8.446;2023-04-03T14:03:13;3.00;;;2.80;;
9142;SDS011;54072;47.410;8.446;2023-04-03T14:05:41;3.13;;;2.83;;
9142;SDS011;54072;47.410;8.446;2023-04-03T14:08:09;2.90;;;2.50;;
9142;SDS011;54072;47.410;8.446;2023-04-03T14:10:37;2.80;;;2.60;;
9142;SDS011;54072;47.410;8.446;2023-04-03T14:13:05;3.43;;;2.80;;
9142;SDS011;54072;47.410;8.446;2023-04-03T14:15:33;3.27;;;2.80;;
9142;SDS011;54072;47.410;8.446;2023-04-03T14:18:02;3.03;;;2.83;;
9142;SDS011;54072;47.410;8.446;2023-04-03T14:20:31;2.97;;;2.67;;
9142;SDS011;54072;47.410;8.446;2023-04-03T14:22:59;4.00;;;2.80;;
9142;SDS011;54072;47.410;8.446;2023-04-03T14:25:27;3.10;;;2.80;;
9142;SDS011;54072;47.410;8.446;2023-04-03T14:27:55;5.10;;;2.43;;
9142;SDS011;54072;47.410;8.446;2023-04-03T14:30:25;3.20;;;2.80;;
9142;SDS011;54072;47.410;8.446;2023-04-03T14:32:54;3.00;;;2.73;;
9142;SDS011;54072;47.410;8.446;2023-04-03T14:35:23;2.60;;;2.40;;
9142;SDS011;54072;47.410;8.446;2023-04-03T14:37:52;3.27;;;2.63;;
9142;SDS011;54072;47.410;8.446;2023-04-03T14:40:22;3.07;;;2.37;;
9142;SDS011;54072;47.410;8.446;2023-04-03T14:42:51;3.10;;;2.80;;
9142;SDS011;54072;47.410;8.446;2023-04-03T14:45:21;2.90;;;2.50;;
9142;SDS011;54072;47.410;8.446;2023-04-03T14:47:51;2.70;;;2.40;;
9142;SDS011;54072;47.410;8.446;2023-04-03T14:50:21;3.60;;;2.83;;
9142;SDS011;54072;47.410;8.446;2023-04-03T14:52:52;3.00;;;2.40;;
9142;SDS011;54072;47.410;8.446;2023-04-03T14:55:22;2.83;;;2.63;;
9142;SDS011;54072;47.410;8.446;2023-04-03T14:57:51;2.67;;;2.47;;
9142;SDS011;54072;47.410;8.446;2023-04-03T15:00:20;2.93;;;2.60;;
9142;SDS011;54072;47.410;8.446;2023-04-03T15:02:48;2.80;;;2.60;;
9142;SDS011;54072;47.410;8.446;2023-04-03T15:05:16;3.03;;;2.40;;
9142;SDS011;54072;47.410;8.446;2023-04-03T15:07:48;2.40;;;2.20;;
9142;SDS011;54072;47.410;8.446;2023-04-03T15:10:18;2.67;;;2.30;;
9142;SDS011;54072;47.410;8.446;2023-04-03T15:12:47;2.70;;;2.50;;
9142;SDS011;54072;47.410;8.446;2023-04-03T15:15:16;2.50;;;2.30;;
9142;SDS011;54072;47.410;8.446;2023-04-03T15:17:46;2.37;;;2.17;;
9142;SDS011;54072;47.410;8.446;2023-04-03T15:20:15;2.30;;;2.20;;
9142;SDS011;54072;47.410;8.446;2023-04-03T15:22:45;2.60;;;2.40;;
9142;SDS011;54072;47.410;8.446;2023-04-03T15:25:15;2.87;;;2.57;;
9142;SDS011;54072;47.410;8.446;2023-04-03T15:27:44;2.33;;;2.10;;
9142;SDS011;54072;47.410;8.446;2023-04-03T15:30:13;2.93;;;2.20;;
9142;SDS011;54072;47.410;8.446;2023-04-03T15:32:42;2.67;;;2.47;;
9142;SDS011;54072;47.410;8.446;2023-04-03T15:35:10;3.20;;;2.90;;
9142;SDS011;54072;47.410;8.446;2023-04-03T15:37:39;2.60;;;2.40;;
9142;SDS011;54072;47.410;8.446;2023-04-03T15:40:07;2.60;;;2.40;;
9142;SDS011;54072;47.410;8.446;2023-04-03T15:42:37;2.80;;;2.47;;
9142;SDS011;54072;47.410;8.446;2023-04-03T15:45:05;2.33;;;2.20;;